Terminal Aerodrome Forecast
Issued by NWS

Home | Current Version | Previous Version | Text Only | Print | Product List | Glossary On
Versions: 1 2 3 4 5 6 7 8 9 10 11 12 13 14 15 16 17 18 19 20 21 22 23 24 25 26 27 28
000
FTUS41 KBUF 270500
TAFJHW
TAF
KJHW 270530Z 2706/2806 21005KT P6SM SCT200
     FM271200 19005KT P6SM BKN025 BKN250
     FM271800 19010G16KT P6SM BKN050 BKN140
     FM280200 21014G20KT P6SM VCSH OVC040
     FM280300 22014G20KT 6SM -SHRA OVC040
     FM280500 24013KT 6SM -SHRA OVC025
      AMD LTD TO CLD VIS AND WIND=

USA.gov is the U.S. government's official web portal to all federal, state and local government web resources and services.